Time;durP1;ratioP1;P1;durP2;ratioP2;P2;SDS_P1;SDS_P2;PMS_P1;PMS_P2;Temp;Humidity;BMP_temperature;BMP_pressure;BME280_temperature;BME280_humidity;BME280_pressure;Samples;Min_cycle;Max_cycle;Signal;HPM_P1;HPM_P2
2022/05/24 00:02:54;;;;;;;13.60;8.55;;;;;;;;;;6288748;28;20086;-82
2022/05/24 00:05:56;;;;;;;13.02;8.57;;;;;;;;;;6297374;28;20509;-81
2022/05/24 00:08:59;;;;;;;13.70;8.55;;;;;;;;;;6314277;28;20088;-82
2022/05/24 00:12:06;;;;;;;13.38;7.70;;;;;;;;;;6289264;28;20100;-83
2022/05/24 00:15:20;;;;;;;13.63;7.47;;;;;;;;;;6308336;28;20040;-82
2022/05/24 00:18:24;;;;;;;13.07;7.43;;;;;;;;;;6316384;28;20044;-83
2022/05/24 00:21:26;;;;;;;14.52;7.50;;;;;;;;;;6316627;28;20060;-84
2022/05/24 00:24:28;;;;;;;10.35;6.90;;;;;;;;;;6317971;28;20170;-82
2022/05/24 00:27:30;;;;;;;11.57;6.80;;;;;;;;;;6296138;28;20418;-80
2022/05/24 00:30:32;;;;;;;10.60;7.15;;;;;;;;;;6296726;28;20114;-81
2022/05/24 00:33:34;;;;;;;12.70;7.13;;;;;;;;;;6293321;28;20044;-83
2022/05/24 00:36:36;;;;;;;9.50;6.20;;;;;;;;;;6292736;28;20409;-81
2022/05/24 00:39:38;;;;;;;11.50;6.68;;;;;;;;;;6291861;28;20113;-81
2022/05/24 00:42:43;;;;;;;10.60;6.75;;;;;;;;;;6297939;28;20085;-81
2022/05/24 00:45:48;;;;;;;11.70;6.63;;;;;;;;;;6309515;28;20078;-82
2022/05/24 00:49:08;;;;;;;10.45;6.47;;;;;;;;;;6299342;28;20127;-83
2022/05/24 00:52:13;;;;;;;11.23;6.38;;;;;;;;;;6313056;28;20185;-81
2022/05/24 00:55:22;;;;;;;10.77;7.18;;;;;;;;;;6321532;28;20109;-81
2022/05/24 00:58:50;;;;;;;10.48;6.95;;;;;;;;;;6299108;28;20059;-82
2022/05/24 01:01:52;;;;;;;8.63;6.28;;;;;;;;;;6291338;28;20068;-81
2022/05/24 01:04:53;;;;;;;10.38;6.85;;;;;;;;;;6289567;28;20040;-81
2022/05/24 01:07:56;;;;;;;12.05;7.40;;;;;;;;;;6290766;28;20700;-80
2022/05/24 01:11:01;;;;;;;13.95;7.60;;;;;;;;;;6291375;28;20043;-80
2022/05/24 01:14:04;;;;;;;12.23;7.13;;;;;;;;;;6304081;28;20129;-81
2022/05/24 01:17:06;;;;;;;13.32;7.30;;;;;;;;;;6316572;28;20070;-82
2022/05/24 01:20:09;;;;;;;12.20;7.40;;;;;;;;;;6294798;28;20055;-84
2022/05/24 01:23:32;;;;;;;9.65;6.88;;;;;;;;;;6292216;28;20045;-82
2022/05/24 01:26:53;;;;;;;13.15;7.10;;;;;;;;;;6295723;28;20660;-82
2022/05/24 01:29:56;;;;;;;9.07;6.47;;;;;;;;;;6317194;28;20047;-83
2022/05/24 01:36:20;;;;;;;13.00;7.53;;;;;;;;;;6319142;28;20105;-80
2022/05/24 01:39:21;;;;;;;14.52;8.10;;;;;;;;;;6276203;28;20562;-80
2022/05/24 01:42:24;;;;;;;11.85;7.13;;;;;;;;;;6290936;28;20064;-82
2022/05/24 01:45:35;;;;;;;9.70;7.05;;;;;;;;;;6281406;28;20081;-80
2022/05/24 01:48:46;;;;;;;9.07;6.32;;;;;;;;;;6322734;28;20511;-82
2022/05/24 01:51:57;;;;;;;13.15;7.32;;;;;;;;;;6341907;28;20424;-82
2022/05/24 01:55:08;;;;;;;13.23;7.68;;;;;;;;;;6336258;28;20538;-81
2022/05/24 01:58:15;;;;;;;10.15;7.32;;;;;;;;;;6295780;28;20123;-81
2022/05/24 02:01:30;;;;;;;11.70;7.15;;;;;;;;;;6291285;28;20104;-80
2022/05/24 02:04:33;;;;;;;9.57;6.30;;;;;;;;;;6266805;28;20064;-81
2022/05/24 02:07:35;;;;;;;12.38;7.00;;;;;;;;;;6291090;28;20041;-80
2022/05/24 02:10:52;;;;;;;11.63;6.72;;;;;;;;;;6290480;28;20042;-80
2022/05/24 02:14:00;;;;;;;13.45;7.00;;;;;;;;;;6306404;28;20044;-80
2022/05/24 02:17:08;;;;;;;13.43;7.50;;;;;;;;;;6317275;28;20082;-79
2022/05/24 02:20:13;;;;;;;15.35;8.15;;;;;;;;;;6313182;28;20087;-80
2022/05/24 02:23:18;;;;;;;10.88;7.80;;;;;;;;;;6316445;28;20470;-82
2022/05/24 02:26:22;;;;;;;12.75;7.80;;;;;;;;;;6342082;28;20136;-80
2022/05/24 02:29:23;;;;;;;16.40;7.97;;;;;;;;;;6300125;28;20094;-81
2022/05/24 02:32:25;;;;;;;13.95;7.97;;;;;;;;;;6293515;28;20134;-81
2022/05/24 02:35:27;;;;;;;16.02;8.45;;;;;;;;;;6293979;28;20051;-81
2022/05/24 02:38:29;;;;;;;13.93;8.10;;;;;;;;;;6294347;28;20431;-80
2022/05/24 02:41:31;;;;;;;14.00;7.63;;;;;;;;;;6291187;28;20782;-82
2022/05/24 02:44:33;;;;;;;14.55;8.07;;;;;;;;;;6278260;28;20047;-81
2022/05/24 02:47:35;;;;;;;17.85;7.82;;;;;;;;;;6290466;28;20117;-80
2022/05/24 02:50:36;;;;;;;13.35;7.95;;;;;;;;;;6316182;28;20382;-80
2022/05/24 02:53:39;;;;;;;11.82;7.13;;;;;;;;;;6300344;28;20040;-80
2022/05/24 02:56:43;;;;;;;13.82;7.97;;;;;;;;;;6311107;28;20094;-80
2022/05/24 02:59:44;;;;;;;13.20;7.80;;;;;;;;;;6292575;28;20045;-80
2022/05/24 03:02:47;;;;;;;15.48;8.27;;;;;;;;;;6291822;28;20113;-79
2022/05/24 03:05:49;;;;;;;14.63;7.83;;;;;;;;;;6292668;28;20127;-81
2022/05/24 03:15:49;;;;;;;21.15;8.30;;;;;;;;;;6282823;28;20156;-80
2022/05/24 03:18:50;;;;;;;18.02;8.95;;;;;;;;;;6278142;28;20634;-80
2022/05/24 03:21:53;;;;;;;17.17;8.20;;;;;;;;;;6289515;28;20567;-81
2022/05/24 03:24:55;;;;;;;13.43;8.30;;;;;;;;;;6292705;28;20287;-81
2022/05/24 03:27:58;;;;;;;18.05;8.70;;;;;;;;;;6288283;28;20447;-81
2022/05/24 03:31:03;;;;;;;12.35;8.02;;;;;;;;;;6290650;28;20514;-79
2022/05/24 03:34:05;;;;;;;11.27;7.38;;;;;;;;;;6290644;28;20098;-81
2022/05/24 03:37:07;;;;;;;14.40;7.22;;;;;;;;;;6277916;28;20044;-79
2022/05/24 03:40:11;;;;;;;10.65;6.95;;;;;;;;;;6290874;28;20044;-80
2022/05/24 03:43:15;;;;;;;14.50;8.10;;;;;;;;;;6288473;28;20189;-80
2022/05/24 03:46:17;;;;;;;15.13;8.25;;;;;;;;;;6308917;28;20086;-80
2022/05/24 03:49:19;;;;;;;16.42;7.30;;;;;;;;;;6291733;28;20068;-79
2022/05/24 03:52:21;;;;;;;13.32;8.05;;;;;;;;;;6292400;28;20052;-79
2022/05/24 03:55:22;;;;;;;14.90;8.68;;;;;;;;;;6292362;28;20044;-81
2022/05/24 03:58:26;;;;;;;14.25;8.23;;;;;;;;;;6301356;28;20141;-80
2022/05/24 04:01:28;;;;;;;16.08;8.48;;;;;;;;;;6314584;28;20188;-80
2022/05/24 04:04:31;;;;;;;13.90;8.55;;;;;;;;;;6340058;28;20136;-81
2022/05/24 04:07:32;;;;;;;13.07;8.20;;;;;;;;;;6323654;28;20132;-80
2022/05/24 04:10:34;;;;;;;15.68;8.35;;;;;;;;;;6315482;28;20058;-81
2022/05/24 04:13:38;;;;;;;14.43;8.00;;;;;;;;;;6292673;28;20041;-80
2022/05/24 04:16:41;;;;;;;13.18;8.27;;;;;;;;;;6293676;28;20040;-80
2022/05/24 04:19:43;;;;;;;11.95;7.18;;;;;;;;;;6289263;28;20048;-80
2022/05/24 04:22:45;;;;;;;14.60;7.75;;;;;;;;;;6314840;28;20413;-82
2022/05/24 04:25:47;;;;;;;11.52;7.10;;;;;;;;;;6317096;28;20048;-81
2022/05/24 04:28:48;;;;;;;10.98;7.13;;;;;;;;;;6316406;28;20082;-81
2022/05/24 04:31:51;;;;;;;10.90;7.03;;;;;;;;;;6316326;28;20051;-80
2022/05/24 04:34:53;;;;;;;12.25;7.57;;;;;;;;;;6332865;28;20055;-81
2022/05/24 04:37:55;;;;;;;12.05;7.53;;;;;;;;;;6324415;28;20103;-82
2022/05/24 04:44:17;;;;;;;9.10;6.38;;;;;;;;;;6300741;28;20040;-79
2022/05/24 04:47:21;;;;;;;9.52;6.55;;;;;;;;;;6306425;28;20068;-82
2022/05/24 04:50:22;;;;;;;10.70;6.53;;;;;;;;;;6287804;28;20045;-82
2022/05/24 04:53:26;;;;;;;9.27;6.10;;;;;;;;;;6272696;28;20086;-81
2022/05/24 04:56:28;;;;;;;10.10;5.35;;;;;;;;;;6296771;28;20112;-81
2022/05/24 04:59:29;;;;;;;8.65;6.05;;;;;;;;;;6316862;28;20082;-79
2022/05/24 05:02:31;;;;;;;9.15;6.18;;;;;;;;;;6297963;28;20055;-81
2022/05/24 05:05:33;;;;;;;8.95;5.80;;;;;;;;;;6297026;28;20051;-83
2022/05/24 05:08:34;;;;;;;8.00;5.22;;;;;;;;;;6317163;28;20044;-82
2022/05/24 05:11:36;;;;;;;10.02;4.97;;;;;;;;;;6300866;28;20114;-82
2022/05/24 05:14:39;;;;;;;6.43;4.65;;;;;;;;;;6316301;28;20067;-81
2022/05/24 05:17:44;;;;;;;5.95;4.32;;;;;;;;;;6315153;28;20551;-82
2022/05/24 05:20:46;;;;;;;6.82;4.30;;;;;;;;;;6314982;28;20119;-81
2022/05/24 05:23:47;;;;;;;6.85;4.68;;;;;;;;;;6316933;28;20052;-82
2022/05/24 05:26:49;;;;;;;6.07;4.38;;;;;;;;;;6317068;28;20124;-81
2022/05/24 05:33:12;;;;;;;5.38;4.25;;;;;;;;;;6302410;28;20048;-81
2022/05/24 05:36:14;;;;;;;5.43;4.25;;;;;;;;;;6298210;28;20044;-81
2022/05/24 05:39:16;;;;;;;5.85;4.07;;;;;;;;;;6296990;28;20059;-81
2022/05/24 05:42:19;;;;;;;4.85;3.65;;;;;;;;;;6304682;28;20131;-80
2022/05/24 05:45:20;;;;;;;6.53;4.07;;;;;;;;;;6288483;28;20503;-84
2022/05/24 05:48:23;;;;;;;5.35;4.72;;;;;;;;;;6281009;28;20048;-83
2022/05/24 05:51:24;;;;;;;5.38;4.45;;;;;;;;;;6309693;28;20036;-83
2022/05/24 05:54:26;;;;;;;5.95;4.63;;;;;;;;;;6293953;28;20036;-84
2022/05/24 05:57:28;;;;;;;5.43;4.20;;;;;;;;;;6312408;28;20109;-84
2022/05/24 06:00:30;;;;;;;7.25;4.35;;;;;;;;;;6293226;28;20501;-83
2022/05/24 06:03:31;;;;;;;6.57;4.07;;;;;;;;;;6297326;28;20042;-82
2022/05/24 06:06:38;;;;;;;6.13;3.78;;;;;;;;;;6338709;28;20050;-81
2022/05/24 06:09:39;;;;;;;4.22;3.80;;;;;;;;;;6320665;28;20074;-81
2022/05/24 06:12:41;;;;;;;5.63;3.95;;;;;;;;;;6329142;28;20086;-81
2022/05/24 06:15:47;;;;;;;4.97;3.88;;;;;;;;;;6311237;28;20117;-81
2022/05/24 06:18:48;;;;;;;6.95;4.30;;;;;;;;;;6325579;28;20240;-79
2022/05/24 06:21:50;;;;;;;6.68;3.90;;;;;;;;;;6341969;28;20132;-81
2022/05/24 06:24:52;;;;;;;3.05;1.65;;;;;;;;;;6321768;28;20563;-81
2022/05/24 06:27:55;;;;;;;3.00;1.20;;;;;;;;;;6338438;28;20048;-79
2022/05/24 06:30:57;;;;;;;1.23;1.13;;;;;;;;;;6339167;28;20139;-80
2022/05/24 06:33:58;;;;;;;3.75;0.90;;;;;;;;;;6326163;28;20119;-81
2022/05/24 06:37:00;;;;;;;2.13;1.00;;;;;;;;;;6309656;28;20121;-80
2022/05/24 06:40:02;;;;;;;1.55;1.00;;;;;;;;;;6308820;28;20040;-79
2022/05/24 06:43:04;;;;;;;1.27;1.10;;;;;;;;;;6290567;28;20071;-81
2022/05/24 06:46:10;;;;;;;2.28;0.90;;;;;;;;;;6308415;28;20130;-82
2022/05/24 06:49:11;;;;;;;1.58;1.00;;;;;;;;;;6304118;28;20042;-81
2022/05/24 06:52:14;;;;;;;1.83;1.00;;;;;;;;;;6314574;28;20121;-82
2022/05/24 06:55:16;;;;;;;2.35;1.08;;;;;;;;;;6316496;28;20044;-81
2022/05/24 06:58:17;;;;;;;1.45;1.08;;;;;;;;;;6300945;28;20048;-83
2022/05/24 07:04:40;;;;;;;1.05;0.95;;;;;;;;;;6313850;28;20060;-80
2022/05/24 07:07:42;;;;;;;3.30;1.10;;;;;;;;;;6318246;28;20066;-82
2022/05/24 07:10:44;;;;;;;3.03;1.20;;;;;;;;;;6317584;28;20055;-83
2022/05/24 07:13:46;;;;;;;2.50;1.20;;;;;;;;;;6304387;28;20048;-83
2022/05/24 07:16:48;;;;;;;3.03;1.30;;;;;;;;;;6311308;28;20172;-82
2022/05/24 07:19:50;;;;;;;1.88;1.45;;;;;;;;;;6318614;28;20039;-80
2022/05/24 07:22:53;;;;;;;3.63;1.70;;;;;;;;;;6301845;28;20123;-81
2022/05/24 07:26:07;;;;;;;2.42;1.30;;;;;;;;;;6326188;28;20051;-80
2022/05/24 07:29:09;;;;;;;3.13;1.40;;;;;;;;;;6313058;28;20154;-81
2022/05/24 07:32:11;;;;;;;2.47;1.60;;;;;;;;;;6294312;28;20044;-82
2022/05/24 07:35:13;;;;;;;3.38;1.70;;;;;;;;;;6286105;28;20052;-80
2022/05/24 07:38:15;;;;;;;4.40;1.40;;;;;;;;;;6321756;28;20097;-79
2022/05/24 07:48:18;;;;;;;2.28;1.20;;;;;;;;;;6316755;28;20158;-79
2022/05/24 07:51:20;;;;;;;2.83;1.55;;;;;;;;;;6316262;28;20124;-81
2022/05/24 07:54:28;;;;;;;3.20;1.60;;;;;;;;;;6320190;28;20090;-82
2022/05/24 07:57:30;;;;;;;3.50;1.30;;;;;;;;;;6313834;28;20097;-80
2022/05/24 08:00:38;;;;;;;3.42;1.73;;;;;;;;;;6305986;28;20052;-80
2022/05/24 08:03:39;;;;;;;4.50;1.75;;;;;;;;;;6324241;28;20040;-82
2022/05/24 08:06:41;;;;;;;3.80;1.70;;;;;;;;;;6309456;28;20447;-82
2022/05/24 08:09:43;;;;;;;2.47;1.20;;;;;;;;;;6323143;28;20105;-81
2022/05/24 08:12:45;;;;;;;2.10;1.05;;;;;;;;;;6323664;28;20048;-81
2022/05/24 08:15:51;;;;;;;2.35;1.10;;;;;;;;;;6324789;28;20040;-79
2022/05/24 08:18:53;;;;;;;1.10;0.93;;;;;;;;;;6315301;28;20268;-82
2022/05/24 08:21:55;;;;;;;2.63;1.20;;;;;;;;;;6330281;28;20044;-80
2022/05/24 08:24:57;;;;;;;1.10;1.00;;;;;;;;;;6348835;28;20345;-79
2022/05/24 08:28:02;;;;;;;1.73;0.93;;;;;;;;;;6332964;28;20073;-81
2022/05/24 08:31:04;;;;;;;2.28;1.17;;;;;;;;;;6326644;28;20046;-79
2022/05/24 08:34:07;;;;;;;1.05;0.88;;;;;;;;;;6327245;28;20099;-79
2022/05/24 08:37:09;;;;;;;1.33;0.75;;;;;;;;;;6327992;28;20062;-79
2022/05/24 08:40:13;;;;;;;2.75;0.50;;;;;;;;;;6325665;28;20043;-78
2022/05/24 08:43:36;;;;;;;1.77;1.08;;;;;;;;;;6327966;28;20071;-79
2022/05/24 08:50:02;;;;;;;2.20;0.80;;;;;;;;;;6322010;28;20044;-81
2022/05/24 08:53:10;;;;;;;0.95;0.80;;;;;;;;;;6328026;28;20056;-80
2022/05/24 08:56:21;;;;;;;1.55;0.60;;;;;;;;;;6330288;28;20075;-81
2022/05/24 08:59:30;;;;;;;1.42;0.75;;;;;;;;;;6326092;28;20094;-81
2022/05/24 09:02:32;;;;;;;0.60;0.60;;;;;;;;;;6326738;28;20075;-81
2022/05/24 09:05:49;;;;;;;1.67;0.60;;;;;;;;;;6303340;28;20044;-80
2022/05/24 09:09:17;;;;;;;0.82;0.60;;;;;;;;;;6300626;28;20048;-80
2022/05/24 09:12:34;;;;;;;0.50;0.50;;;;;;;;;;6295770;28;20049;-80
2022/05/24 09:15:48;;;;;;;2.05;0.63;;;;;;;;;;6299292;28;20048;-80
2022/05/24 09:19:23;;;;;;;0.77;0.57;;;;;;;;;;6292733;28;20047;-80
2022/05/24 09:22:31;;;;;;;2.50;0.50;;;;;;;;;;6291842;28;20040;-81
2022/05/24 09:25:33;;;;;;;0.98;0.60;;;;;;;;;;6293237;28;21588;-79
2022/05/24 09:28:56;;;;;;;1.05;0.57;;;;;;;;;;6311602;28;20704;-81
2022/05/24 09:32:04;;;;;;;0.95;0.88;;;;;;;;;;6316513;28;20074;-79
2022/05/24 09:35:09;;;;;;;1.33;0.70;;;;;;;;;;6298304;28;20567;-80
2022/05/24 09:38:14;;;;;;;2.17;0.77;;;;;;;;;;6296440;28;20045;-80
2022/05/24 09:41:22;;;;;;;1.00;0.90;;;;;;;;;;6299616;28;20059;-78
2022/05/24 09:44:24;;;;;;;2.00;1.00;;;;;;;;;;6321810;28;20044;-81
2022/05/24 09:47:37;;;;;;;0.88;0.63;;;;;;;;;;6304781;28;20551;-80
2022/05/24 09:50:39;;;;;;;0.73;0.73;;;;;;;;;;6290262;28;20093;-80
2022/05/24 09:53:52;;;;;;;0.60;0.60;;;;;;;;;;6289100;28;20056;-80
2022/05/24 09:57:07;;;;;;;2.55;0.82;;;;;;;;;;6288171;28;20044;-78
2022/05/24 10:00:20;;;;;;;1.70;1.00;;;;;;;;;;6314760;28;20085;-80
2022/05/24 10:03:37;;;;;;;0.80;0.80;;;;;;;;;;6322447;28;20108;-83
2022/05/24 10:06:42;;;;;;;1.77;0.73;;;;;;;;;;6345464;28;20441;-79
2022/05/24 10:10:06;;;;;;;0.90;0.73;;;;;;;;;;6327341;28;20047;-79
2022/05/24 10:13:45;;;;;;;1.95;0.80;;;;;;;;;;6327421;28;20043;-81
2022/05/24 10:17:20;;;;;;;1.77;0.73;;;;;;;;;;6317790;28;20097;-79
2022/05/24 10:20:28;;;;;;;1.08;0.70;;;;;;;;;;6315976;28;20044;-78
2022/05/24 10:23:46;;;;;;;1.40;0.80;;;;;;;;;;6316576;28;20639;-79
2022/05/24 10:27:02;;;;;;;1.40;0.70;;;;;;;;;;6306467;28;20062;-80
2022/05/24 10:30:11;;;;;;;1.10;0.60;;;;;;;;;;6320822;28;20943;-81
2022/05/24 10:40:33;;;;;;;1.35;0.68;;;;;;;;;;6342765;28;20048;-80
2022/05/24 10:43:53;;;;;;;1.13;0.70;;;;;;;;;;6321492;28;20059;-81
2022/05/24 10:47:13;;;;;;;1.85;0.68;;;;;;;;;;6319463;28;20544;-79
2022/05/24 10:50:30;;;;;;;1.42;0.60;;;;;;;;;;6309120;28;20064;-79
2022/05/24 10:53:56;;;;;;;0.52;0.52;;;;;;;;;;6295830;28;20235;-81
2022/05/24 10:57:17;;;;;;;0.93;0.57;;;;;;;;;;6320401;28;20052;-82
2022/05/24 11:00:23;;;;;;;2.17;0.60;;;;;;;;;;6306015;28;20052;-80
2022/05/24 11:03:32;;;;;;;0.63;0.55;;;;;;;;;;6323890;28;20115;-82
2022/05/24 11:06:39;;;;;;;0.60;0.50;;;;;;;;;;6298274;28;20421;-80
2022/05/24 11:09:50;;;;;;;0.88;0.52;;;;;;;;;;6303089;28;20071;-83
2022/05/24 11:13:01;;;;;;;0.73;0.50;;;;;;;;;;6296748;28;20686;-82
2022/05/24 11:16:07;;;;;;;1.20;0.75;;;;;;;;;;6296082;28;20110;-80
2022/05/24 11:19:14;;;;;;;1.40;0.70;;;;;;;;;;6291293;28;20055;-82
2022/05/24 11:22:24;;;;;;;;;;;;;;;;;;6319438;28;20049;-81
2022/05/24 11:25:33;;;;;;;1.58;0.65;;;;;;;;;;6292460;28;19948;-81
2022/05/24 11:28:47;;;;;;;1.17;0.50;;;;;;;;;;6312766;28;20436;-82
2022/05/24 11:32:01;;;;;;;1.05;0.95;;;;;;;;;;6324092;28;20097;-83
2022/05/24 11:35:08;;;;;;;1.95;0.98;;;;;;;;;;6321877;28;20070;-82
2022/05/24 11:38:16;;;;;;;1.25;0.73;;;;;;;;;;6322111;28;20048;-84
2022/05/24 11:41:25;;;;;;;1.13;0.85;;;;;;;;;;6315943;28;20052;-84
2022/05/24 11:44:33;;;;;;;2.47;0.70;;;;;;;;;;6305093;28;20036;-81
2022/05/24 11:47:34;;;;;;;1.48;0.60;;;;;;;;;;6310028;28;20036;-85
2022/05/24 11:50:45;;;;;;;0.57;0.50;;;;;;;;;;6324769;28;20047;-83
2022/05/24 11:53:47;;;;;;;2.22;0.82;;;;;;;;;;6329303;28;20054;-84
2022/05/24 11:57:01;;;;;;;1.63;0.60;;;;;;;;;;6329409;28;20129;-82
2022/05/24 12:00:04;;;;;;;1.88;0.70;;;;;;;;;;6308704;28;20390;-84
2022/05/24 12:10:06;;;;;;;0.57;0.57;;;;;;;;;;6345076;28;20047;-85
2022/05/24 12:13:31;;;;;;;1.27;0.60;;;;;;;;;;6344094;28;20043;-83
2022/05/24 12:16:40;;;;;;;0.57;0.40;;;;;;;;;;6327170;28;20105;-82
2022/05/24 12:19:48;;;;;;;1.73;0.60;;;;;;;;;;6312844;28;20048;-82
2022/05/24 12:23:06;;;;;;;1.25;0.40;;;;;;;;;;6320642;28;20047;-84
2022/05/24 12:26:19;;;;;;;0.50;0.45;;;;;;;;;;6320952;28;20047;-85
2022/05/24 12:29:21;;;;;;;1.75;0.40;;;;;;;;;;6294126;28;20059;-84
2022/05/24 12:32:25;;;;;;;0.60;0.50;;;;;;;;;;6294003;28;20454;-84
2022/05/24 12:35:27;;;;;;;1.60;0.50;;;;;;;;;;6292288;28;20079;-82
2022/05/24 12:38:29;;;;;;;0.60;0.55;;;;;;;;;;6295091;28;20044;-82
2022/05/24 12:41:47;;;;;;;0.50;0.50;;;;;;;;;;6294332;28;20309;-81
2022/05/24 12:45:00;;;;;;;1.10;0.60;;;;;;;;;;6295269;28;20386;-81
2022/05/24 12:48:03;;;;;;;0.65;0.40;;;;;;;;;;6294702;28;20047;-83
2022/05/24 12:51:10;;;;;;;1.05;0.60;;;;;;;;;;6299289;28;20051;-80
2022/05/24 12:54:27;;;;;;;0.60;0.60;;;;;;;;;;6298303;28;20044;-80
2022/05/24 12:57:36;;;;;;;1.15;0.50;;;;;;;;;;6316924;28;20052;-83
2022/05/24 13:00:38;;;;;;;0.70;0.68;;;;;;;;;;6289562;28;20075;-82
2022/05/24 13:03:46;;;;;;;0.60;0.60;;;;;;;;;;6292473;28;20525;-80
2022/05/24 13:06:56;;;;;;;1.15;0.60;;;;;;;;;;6291577;28;20056;-82
2022/05/24 13:09:58;;;;;;;1.33;0.60;;;;;;;;;;6295095;28;20443;-82
2022/05/24 13:13:03;;;;;;;1.33;0.70;;;;;;;;;;6310557;28;20055;-83
2022/05/24 13:16:06;;;;;;;0.82;0.50;;;;;;;;;;6277362;28;20044;-83
2022/05/24 13:19:08;;;;;;;0.95;0.60;;;;;;;;;;6300526;28;20502;-82
2022/05/24 13:22:10;;;;;;;0.40;0.40;;;;;;;;;;6321800;28;20042;-82
2022/05/24 13:25:22;;;;;;;0.50;0.50;;;;;;;;;;6323027;28;20040;-81
2022/05/24 13:28:35;;;;;;;2.05;0.40;;;;;;;;;;6336130;28;20069;-82
2022/05/24 13:35:02;;;;;;;2.15;0.60;;;;;;;;;;6336169;28;20047;-82
2022/05/24 13:38:04;;;;;;;1.05;0.60;;;;;;;;;;6348982;28;20047;-81
2022/05/24 13:41:09;;;;;;;2.40;0.70;;;;;;;;;;6321060;28;20043;-81
2022/05/24 13:44:34;;;;;;;0.82;0.50;;;;;;;;;;6318160;28;20051;-81
2022/05/24 13:47:38;;;;;;;0.93;0.40;;;;;;;;;;6321969;28;20044;-80
2022/05/24 13:51:31;;;;;;;0.75;0.50;;;;;;;;;;6345129;28;20043;-80
2022/05/24 13:54:37;;;;;;;0.40;0.40;;;;;;;;;;6327586;28;20040;-81
2022/05/24 13:57:57;;;;;;;0.68;0.68;;;;;;;;;;6345519;28;20051;-81
2022/05/24 14:01:10;;;;;;;0.68;0.52;;;;;;;;;;6291843;28;20067;-82
2022/05/24 14:04:19;;;;;;;1.45;0.65;;;;;;;;;;6317706;28;20050;-81
2022/05/24 14:07:21;;;;;;;1.25;0.50;;;;;;;;;;6325675;28;20078;-81
2022/05/24 14:10:22;;;;;;;0.88;0.70;;;;;;;;;;6342510;28;20043;-80
2022/05/24 14:13:24;;;;;;;0.70;0.63;;;;;;;;;;6339980;28;20088;-81
2022/05/24 14:16:30;;;;;;;0.93;0.43;;;;;;;;;;6314954;28;20048;-81
2022/05/24 14:19:33;;;;;;;1.85;0.50;;;;;;;;;;6331459;28;20043;-81
2022/05/24 14:22:35;;;;;;;1.27;0.50;;;;;;;;;;6345694;28;20043;-81
2022/05/24 14:25:37;;;;;;;0.80;0.55;;;;;;;;;;6302644;28;20107;-81
2022/05/24 14:28:38;;;;;;;1.05;0.77;;;;;;;;;;6322291;28;20048;-84
2022/05/24 14:31:41;;;;;;;2.55;0.80;;;;;;;;;;6311667;28;20048;-83
2022/05/24 14:34:43;;;;;;;1.70;0.98;;;;;;;;;;6321737;28;20064;-81
2022/05/24 14:37:45;;;;;;;0.95;0.63;;;;;;;;;;6322508;28;20072;-79
2022/05/24 14:40:48;;;;;;;1.65;0.68;;;;;;;;;;6299311;28;20040;-81
2022/05/24 14:44:00;;;;;;;2.70;0.70;;;;;;;;;;6300687;28;20052;-81
2022/05/24 14:47:03;;;;;;;0.80;0.70;;;;;;;;;;6320555;28;20050;-81
2022/05/24 14:50:06;;;;;;;1.55;0.65;;;;;;;;;;6300084;28;20059;-81
2022/05/24 14:53:10;;;;;;;0.75;0.50;;;;;;;;;;6289876;28;20066;-80
2022/05/24 14:56:11;;;;;;;;;;;;;;;;;;6298524;28;20112;-82
2022/05/24 14:59:15;;;;;;;0.50;0.40;;;;;;;;;;6297972;28;19932;-79
2022/05/24 15:02:19;;;;;;;2.00;0.43;;;;;;;;;;6332272;28;20108;-79
2022/05/24 15:05:21;;;;;;;0.40;0.33;;;;;;;;;;6339797;28;20100;-79
2022/05/24 15:18:17;;;;;;;0.30;0.30;;;;;;;;;;6317783;28;20044;-80
2022/05/24 15:21:22;;;;;;;0.57;0.40;;;;;;;;;;6319391;28;20646;-78
2022/05/24 15:24:29;;;;;;;0.60;0.30;;;;;;;;;;6314476;28;20584;-80
2022/05/24 15:27:31;;;;;;;0.40;0.40;;;;;;;;;;6314786;28;20237;-79
2022/05/24 15:30:33;;;;;;;0.50;0.40;;;;;;;;;;6310609;28;20134;-79
2022/05/24 15:33:35;;;;;;;0.40;0.40;;;;;;;;;;6302363;28;20597;-78
2022/05/24 15:36:36;;;;;;;1.33;0.38;;;;;;;;;;6286848;28;20422;-78
2022/05/24 15:39:38;;;;;;;0.98;0.35;;;;;;;;;;6287636;28;20117;-79
2022/05/24 15:42:40;;;;;;;0.60;0.30;;;;;;;;;;6272428;28;20071;-79
2022/05/24 15:45:47;;;;;;;0.45;0.30;;;;;;;;;;6311029;28;20794;-79
2022/05/24 15:48:51;;;;;;;0.68;0.40;;;;;;;;;;6290159;28;20117;-81
2022/05/24 15:51:53;;;;;;;0.55;0.40;;;;;;;;;;6289721;28;20055;-77
2022/05/24 15:54:55;;;;;;;1.10;0.35;;;;;;;;;;6292073;28;20064;-80
2022/05/24 15:57:57;;;;;;;3.58;0.30;;;;;;;;;;6290908;28;20206;-81
2022/05/24 16:00:59;;;;;;;1.48;0.50;;;;;;;;;;6285486;28;20048;-80
2022/05/24 16:04:00;;;;;;;1.48;0.70;;;;;;;;;;6288076;28;20217;-83
2022/05/24 16:10:23;;;;;;;1.65;0.70;;;;;;;;;;6295500;28;20044;-80
2022/05/24 16:13:25;;;;;;;0.73;0.50;;;;;;;;;;6295595;28;20082;-79
2022/05/24 16:16:31;;;;;;;1.75;0.50;;;;;;;;;;6292639;28;20075;-80
2022/05/24 16:19:33;;;;;;;1.08;0.60;;;;;;;;;;6305425;28;20044;-80
2022/05/24 16:22:37;;;;;;;0.63;0.60;;;;;;;;;;6315095;28;20072;-78
2022/05/24 16:25:39;;;;;;;2.15;0.65;;;;;;;;;;6321555;28;20683;-79
2022/05/24 16:28:43;;;;;;;2.08;0.70;;;;;;;;;;6315833;28;20051;-81
2022/05/24 16:31:45;;;;;;;1.58;0.47;;;;;;;;;;6315365;28;20043;-81
2022/05/24 16:34:46;;;;;;;1.40;0.55;;;;;;;;;;6309412;28;20075;-80
2022/05/24 16:37:48;;;;;;;0.85;0.50;;;;;;;;;;6316458;28;20055;-79
2022/05/24 16:40:50;;;;;;;2.13;0.60;;;;;;;;;;6296677;28;20044;-80
2022/05/24 16:43:52;;;;;;;1.08;0.50;;;;;;;;;;6302845;28;20496;-82
2022/05/24 16:46:54;;;;;;;0.70;0.43;;;;;;;;;;6310378;28;20129;-81
2022/05/24 16:49:55;;;;;;;2.58;0.80;;;;;;;;;;6331170;28;20050;-80
2022/05/24 16:52:57;;;;;;;2.20;0.60;;;;;;;;;;6336950;28;20451;-80
2022/05/24 16:59:19;;;;;;;1.67;0.50;;;;;;;;;;6294179;28;20044;-80
2022/05/24 17:02:21;;;;;;;0.60;0.50;;;;;;;;;;6274748;28;20055;-81
2022/05/24 17:05:34;;;;;;;0.90;0.50;;;;;;;;;;6356094;27;20603;-80
2022/05/24 17:08:36;;;;;;;1.17;0.70;;;;;;;;;;6336147;27;20067;-82
2022/05/24 17:11:37;;;;;;;1.13;0.60;;;;;;;;;;6326812;27;20040;-82
2022/05/24 17:14:39;;;;;;;0.60;0.60;;;;;;;;;;6309578;27;20074;-82
2022/05/24 17:17:41;;;;;;;0.98;0.40;;;;;;;;;;6308434;27;20055;-82
2022/05/24 17:20:44;;;;;;;1.80;0.40;;;;;;;;;;6338742;27;20064;-82
2022/05/24 17:23:45;;;;;;;0.67;0.47;;;;;;;;;;6301255;27;20059;-81
2022/05/24 17:26:47;;;;;;;1.08;0.60;;;;;;;;;;6312079;27;20049;-81
2022/05/24 17:29:49;;;;;;;0.57;0.40;;;;;;;;;;6315763;27;20087;-79
2022/05/24 17:32:59;;;;;;;0.60;0.35;;;;;;;;;;6312257;27;20045;-79
2022/05/24 17:36:01;;;;;;;0.65;0.50;;;;;;;;;;6302587;27;20817;-81
2022/05/24 17:39:03;;;;;;;0.30;0.30;;;;;;;;;;6315534;27;20048;-81
2022/05/24 17:42:06;;;;;;;0.77;0.40;;;;;;;;;;6301735;27;20041;-81
2022/05/24 17:45:10;;;;;;;0.47;0.47;;;;;;;;;;6285977;28;20081;-82
2022/05/24 17:48:14;;;;;;;1.13;0.40;;;;;;;;;;6340099;27;20156;-81
2022/05/24 17:51:17;;;;;;;0.73;0.50;;;;;;;;;;6286619;28;20072;-82
2022/05/24 17:54:18;;;;;;;1.27;0.38;;;;;;;;;;6309767;28;20047;-81
2022/05/24 17:57:21;;;;;;;1.00;0.45;;;;;;;;;;6310313;28;20761;-81
2022/05/24 18:00:22;;;;;;;1.50;0.47;;;;;;;;;;6329500;27;20054;-81
2022/05/24 18:03:24;;;;;;;0.80;0.35;;;;;;;;;;6330712;28;20052;-82
2022/05/24 18:06:26;;;;;;;1.15;0.60;;;;;;;;;;6313222;28;20055;-80
2022/05/24 18:09:28;;;;;;;1.05;0.40;;;;;;;;;;6282344;28;20044;-80
2022/05/24 18:12:29;;;;;;;0.60;0.30;;;;;;;;;;6283732;28;20137;-83
2022/05/24 18:15:31;;;;;;;1.48;0.40;;;;;;;;;;6292323;28;20048;-83
2022/05/24 18:18:33;;;;;;;1.75;0.40;;;;;;;;;;6292176;28;20040;-82
2022/05/24 18:21:39;;;;;;;1.45;0.50;;;;;;;;;;6297213;28;20742;-82
2022/05/24 18:24:50;;;;;;;1.05;0.50;;;;;;;;;;6290686;28;20692;-81
2022/05/24 18:34:40;;;;;;;0.40;0.40;;;;;;;;;;6286143;28;20040;-79
2022/05/24 18:37:42;;;;;;;1.65;0.65;;;;;;;;;;6290342;28;20056;-84
2022/05/24 18:40:45;;;;;;;2.03;0.52;;;;;;;;;;6291204;28;20140;-80
2022/05/24 18:43:47;;;;;;;0.40;0.40;;;;;;;;;;6313299;28;20512;-81
2022/05/24 18:46:50;;;;;;;1.40;0.52;;;;;;;;;;6304233;28;20072;-84
2022/05/24 18:49:52;;;;;;;;;;;;;;;;;;6297266;28;20063;-80
2022/05/24 18:52:54;;;;;;;4.03;0.65;;;;;;;;;;6331499;27;19974;-84
2022/05/24 18:55:56;;;;;;;0.80;0.63;;;;;;;;;;6320450;27;20477;-81
2022/05/24 18:58:57;;;;;;;2.13;0.88;;;;;;;;;;6315707;27;20040;-84
2022/05/24 19:01:59;;;;;;;1.48;0.40;;;;;;;;;;6302713;28;20048;-83
2022/05/24 19:05:02;;;;;;;0.75;0.50;;;;;;;;;;6292724;28;20045;-84
2022/05/24 19:08:05;;;;;;;1.20;0.90;;;;;;;;;;6295506;28;20512;-82
2022/05/24 19:11:06;;;;;;;0.80;0.60;;;;;;;;;;6290676;28;20045;-84
2022/05/24 19:14:08;;;;;;;0.60;0.50;;;;;;;;;;6315613;27;20079;-84
2022/05/24 19:17:14;;;;;;;3.03;0.70;;;;;;;;;;6312839;27;20043;-83
2022/05/24 19:20:16;;;;;;;1.92;0.63;;;;;;;;;;6296583;27;20545;-82
2022/05/24 19:23:19;;;;;;;0.60;0.50;;;;;;;;;;6292697;28;20112;-83
2022/05/24 19:26:21;;;;;;;3.43;0.67;;;;;;;;;;6294683;27;20048;-81
2022/05/24 19:29:22;;;;;;;1.42;0.68;;;;;;;;;;6285869;27;20592;-81
2022/05/24 19:32:25;;;;;;;1.67;0.70;;;;;;;;;;6286738;27;20660;-79
2022/05/24 19:35:29;;;;;;;2.30;0.82;;;;;;;;;;6282383;28;20090;-82
2022/05/24 19:41:39;;;;;;;1.38;0.80;;;;;;;;;;6284429;28;20147;-82
2022/05/24 19:41:53;;;;;;;1.75;0.50;;;;;;;;;;6282253;28;20125;-81